Flight Track Log - Related Links

Times and Time Zones

All times are in EST time to prevent confusion due to time zone crossing. See the EJA574 flight status page for this flight to view local times or setup timezone preferences in your user account.

Time Position Orientation Groundspeed Altitude Reporting Facility
EST Latitude Longitude Course Direction KTS MPH feet Rate Location/Type
Tue 10:17:23 AM 35.9900 -79.9428 202° Southwest 262 302 7,700  Level Atlanta Center
Tue 10:19:23 AM 35.8467 -80.0294 206° Southwest 327 376 12,000 1,400 Climbing Atlanta Center
Tue 10:20:23 AM 35.7628 -80.0797 206° Southwest 353 406 11,900 300 Descending Atlanta Center
Tue 10:21:00 AM 35.5845 -80.1912 202° Southwest  Level FlightAware Approximate
Tue 10:21:23 AM 35.6911 -80.1217 205° Southwest 333 383 12,600  Level Atlanta Center
Tue 10:22:23 AM 35.6158 -80.1764 211° Southwest 320 368 15,300 2,750 Climbing Atlanta Center
Tue 10:23:23 AM 35.5381 -80.2258 207° Southwest 320 368 18,100 2,850 Climbing Atlanta Center
Tue 10:24:23 AM 35.4539 -80.2681 202° Southwest 325 374 21,000 3,000 Climbing Atlanta Center
Tue 10:25:23 AM 35.3675 -80.3128 203° Southwest 332 382 24,100 2,850 Climbing Atlanta Center
Tue 10:26:23 AM 35.2789 -80.3497 199° South 338 389 26,700 2,350 Climbing Atlanta Center
Tue 10:27:23 AM 35.1797 -80.3769 193° South 348 400 28,800 1,974 Climbing Atlanta Center
Tue 10:28:58 AM 35.0222 -80.4261 194° South 365 420 31,800 1,239 Climbing Jacksonville Center
Tue 10:29:58 AM 34.9142 -80.4522 191° South 378 435 32,000 100 Climbing Jacksonville Center
Tue 10:30:58 AM 34.7981 -80.4883 194° South 395 455 32,000  Level Jacksonville Center
Tue 10:31:58 AM 34.6883 -80.5192 193° South 395 455 32,000  Level Jacksonville Center
Tue 10:32:58 AM 34.5761 -80.5475 192° South 407 468 32,000 350 Level Jacksonville Center
Tue 10:33:58 AM 34.4619 -80.5808 194° South 412 474 32,700 950 Climbing Jacksonville Center
Tue 10:34:58 AM 34.3519 -80.6089 192° South 412 474 33,900 800 Climbing Jacksonville Center
Tue 10:35:58 AM 34.2419 -80.6419 194° South 412 474 34,300 1,100 Climbing Jacksonville Center
Tue 10:36:58 AM 34.1339 -80.6722 193° South 412 474 36,100 1,750 Climbing Jacksonville Center
Tue 10:37:58 AM 34.0281 -80.6975 191° South 407 468 37,800 1,700 Climbing Jacksonville Center
Tue 10:38:58 AM 33.9242 -80.7303 195° South 395 455 39,500 1,100 Climbing Jacksonville Center
Tue 10:39:58 AM 33.8225 -80.7553 192° South 389 448 40,000 250 Climbing Jacksonville Center
Tue 10:40:58 AM 33.7144 -80.7878 194° South 389 448 40,000  Level Jacksonville Center
Tue 10:41:58 AM 33.6064 -80.8128 191° South 399 459 40,000  Level Jacksonville Center
Tue 10:42:58 AM 33.4964 -80.8453 194° South 399 459 40,000  Level Jacksonville Center
Tue 10:43:58 AM 33.3883 -80.8725 192° South 399 459 40,000  Level Jacksonville Center
Tue 10:44:58 AM 33.2781 -80.9025 193° South 404 465 40,000  Level Jacksonville Center
Tue 10:45:58 AM 33.1700 -80.9297 192° South 409 471 40,000  Level Jacksonville Center
Tue 10:46:58 AM 33.0597 -80.9594 193° South 409 471 40,000  Level Jacksonville Center
Tue 10:47:58 AM 32.9539 -80.9889 193° South 409 471 40,000  Level Jacksonville Center
Tue 10:48:58 AM 32.8478 -81.0183 193° South 409 471 40,000  Level Jacksonville Center
Tue 10:49:58 AM 32.7417 -81.0453 192° South 404 465 40,000  Level Jacksonville Center
Tue 10:50:58 AM 32.6378 -81.0744 193° South 390 449 40,000  Level Jacksonville Center
Tue 10:51:58 AM 32.5339 -81.1011 192° South 390 449 40,000  Level Jacksonville Center
Tue 10:52:58 AM 32.4361 -81.1278 193° South 396 456 40,000  Level Jacksonville Center
Tue 10:53:58 AM 32.3153 -81.1569 192° South 401 461 40,000  Level Jacksonville Center
Tue 10:54:58 AM 32.2092 -81.1836 192° South 396 456 40,000  Level Jacksonville Center
Tue 10:55:58 AM 32.1008 -81.1978 186° South 390 449 40,000  Level Jacksonville Center
Tue 10:56:58 AM 31.9861 -81.1953 179° South 410 472 40,000  Level Jacksonville Center
Tue 10:57:58 AM 31.8692 -81.1925 179° South 421 484 40,000  Level Jacksonville Center
Tue 10:58:58 AM 31.7667 -81.1894 179° South 421 484 40,000  Level Jacksonville Center
Tue 10:59:58 AM 31.6372 -81.1844 178° South 421 484 40,000  Level Jacksonville Center
Tue 11:00:58 AM 31.5203 -81.1817 179° South 421 484 40,000  Level Jacksonville Center
Tue 11:01:58 AM 31.4139 -81.1789 179° South 426 490 40,000  Level Jacksonville Center
Tue 11:02:58 AM 31.2947 -81.1761 179° South 420 483 40,000  Level Jacksonville Center
Tue 11:03:58 AM 31.1778 -81.1708 178° South 420 483 40,000  Level Jacksonville Center
Tue 11:04:58 AM 31.0608 -81.1683 179° South 420 483 40,000  Level Jacksonville Center
Tue 11:05:58 AM 30.9417 -81.1631 178° South 420 483 40,000  Level Jacksonville Center
Tue 11:06:58 AM 30.8289 -81.1581 178° South 420 483 40,000  Level Jacksonville Center
Tue 11:07:58 AM 30.7097 -81.1553 179° South 420 483 40,000  Level Jacksonville Center
Tue 11:08:58 AM 30.5928 -81.1525 179° South 420 483 40,000  Level Jacksonville Center
Tue 11:09:58 AM 30.4758 -81.1475 178° South 420 483 40,000  Level Jacksonville Center
Tue 11:10:58 AM 30.3589 -81.1447 179° South 420 483 40,000  Level Jacksonville Center
Tue 11:11:58 AM 30.2419 -81.1422 179° South 420 483 40,000  Level Jacksonville Center
Tue 11:12:58 AM 30.1272 -81.1394 179° South 420 483 40,000  Level Jacksonville Center
Tue 11:13:58 AM 30.0100 -81.1344 178° South 420 483 40,000 -550 Level Jacksonville Center
Tue 11:14:58 AM 29.8931 -81.1317 179° South 420 483 38,900 -1,000 Descending Jacksonville Center
Tue 11:15:58 AM 29.7742 -81.1292 179° South 420 483 38,000 -450 Descending Jacksonville Center
Tue 11:16:58 AM 29.6572 -81.1264 179° South 420 483 38,000 -150 Level Jacksonville Center
Tue 11:17:58 AM 29.5425 -81.1236 179° South 420 483 37,700 -900 Descending Jacksonville Center
Tue 11:18:58 AM 29.4150 -81.1189 178° South 420 483 36,200 -850 Descending Jacksonville Center
Tue 11:19:58 AM 29.2978 -81.1042 174° South 420 483 36,000 -49 Descending Jacksonville Center
Tue 11:23:02 AM 28.9744 -80.8800 149° Southeast 461 531 36,000  Level Miami Center
Tue 11:24:02 AM 28.8561 -80.7903 146° Southeast 476 548 36,000  Level Miami Center
Tue 11:25:02 AM 28.7578 -80.7253 150° Southeast 476 548 36,000 -200 Level Miami Center
Tue 11:26:02 AM 28.6403 -80.6692 157° South 461 531 35,600 -500 Descending Miami Center
Tue 11:27:02 AM 28.5119 -80.6269 164° South 447 514 35,000 -500 Descending Miami Center
Tue 11:28:02 AM 28.3939 -80.5947 166° South 439 505 34,600 -1,100 Descending Miami Center
Tue 11:29:02 AM 28.2844 -80.5556 163° South 426 490 32,800 -2,200 Descending Miami Center
Tue 11:30:02 AM 28.1708 -80.5072 159° South 420 483 30,200 -2,600 Descending Miami Center
Tue 11:31:02 AM 28.0531 -80.4564 159° South 431 496 27,600 -2,700 Descending Miami Center
Tue 11:32:02 AM 27.9375 -80.4058 159° South 447 514 24,800 -2,800 Descending Miami Center
Tue 11:33:02 AM 27.8197 -80.3550 159° South 452 520 22,000 -2,700 Descending Miami Center
Tue 11:34:02 AM 27.7125 -80.3072 158° South 438 504 19,400 -2,350 Descending Miami Center
Tue 11:35:02 AM 27.6111 -80.2644 159° South 423 487 17,300 -2,350 Descending Miami Center
Tue 11:36:02 AM 27.5161 -80.2242 159° South 389 448 14,700 -2,350 Descending Miami Center
Tue 11:37:02 AM 27.4250 -80.1839 159° South 358 412 12,600 -2,000 Descending Miami Center
Tue 11:38:02 AM 27.3506 -80.1514 159° South 331 381 10,700 -1,300 Descending Miami Center
Tue 11:39:02 AM 27.2717 -80.1328 168° South 306 352 10,000 -850 Descending Miami Center
Tue 11:40:02 AM 27.2019 -80.0772 145° Southeast 280 322 9,000 -500 Descending Miami Center
Tue 11:41:02 AM 27.1447 -80.0194 138° Southeast 275 316 9,000 -500 Level Miami Center
Tue 11:42:02 AM 27.0956 -79.9739 140° Southeast 268 308 8,000 -1,100 Descending Miami Center
Tue 11:43:02 AM 27.0225 -79.9767 182° South 248 285 6,800 -1,400 Descending Miami Center
Tue 11:44:02 AM 26.9464 -80.0189 206° Southwest 275 316 5,200 -900 Descending Miami Center
Tue 11:45:02 AM 26.8894 -80.0500 206° Southwest 255 293 5,000 -100 Descending Miami Center
Tue 11:46:02 AM 26.8303 -80.0786 203° Southwest 240 276 5,000 -188 Level Miami Center
Tue 11:49:17 AM 26.6206 -80.1192 191° South 226 260 4,200 -234 Descending Miami Center
Tue 11:50:18 AM 26.5556 -80.1314 190° South 221 254 4,000 -541 Descending Miami Center
Tue 11:51:19 AM 26.4967 -80.1436 191° South 220 253 3,100 -1,082 Descending Miami Center
Tue 11:52:20 AM 26.4342 -80.1419 179° South 209 241 1,800 -738 Descending Miami Center
Tue 11:53:21 AM 26.3858 -80.1453 184° South 187 215 1,600 -492 Descending Miami Center
Tue 11:54:22 AM 26.3547 -80.1467 182° South 134 154 800 -787 Descending Miami Center
Tue 11:56:00 AM 26.3667 -80.1000 180° South  Level FlightAware Approximate
Tue 12:03:00 PM 26.3785 -80.1077 180° South  Level Estimated
Tue 12:04:00 PM 26.3785 -80.1077 180° South  Level Estimated

Login

Don't have an account? Register now (free) for customized features, flight alerts, and more!